Time;durP1;ratioP1;P1;durP2;ratioP2;P2;SDS_P1;SDS_P2;PMS_P1;PMS_P2;Temp;Humidity;BMP_temperature;BMP_pressure;BME280_temperature;BME280_humidity;BME280_pressure;Samples;Min_cycle;Max_cycle;Signal;HPM_P1;HPM_P2
2021/12/10 00:02:34;;;;;;;14.90;6.22;;;;;;;-8.37;100.00;101491.03;4953075;28;20046;-65
2021/12/10 00:05:27;;;;;;;14.05;6.03;;;;;;;-8.30;100.00;101491.66;4958493;28;20069;-62
2021/12/10 00:08:15;;;;;;;14.50;5.30;;;;;;;-8.27;100.00;101494.47;4953100;28;20046;-63
2021/12/10 00:11:06;;;;;;;13.00;5.78;;;;;;;-8.28;100.00;101502.09;4940599;28;20042;-59
2021/12/10 00:13:51;;;;;;;12.48;5.63;;;;;;;-8.30;100.00;101501.03;4983959;28;20148;-58
2021/12/10 00:16:39;;;;;;;16.40;6.00;;;;;;;-8.24;100.00;101511.84;4971507;28;20034;-73
2021/12/10 00:22:15;;;;;;;;;;;;;;;-8.17;100.00;101509.84;4968270;28;20134;-63
2021/12/10 00:25:02;;;;;;;14.30;5.72;;;;;;;-8.31;100.00;101507.84;4970189;28;20038;-59
2021/12/10 00:27:50;;;;;;;16.55;6.45;;;;;;;-8.35;100.00;101508.38;4947105;28;20054;-69
2021/12/10 00:30:44;;;;;;;15.38;6.20;;;;;;;-8.35;100.00;101510.06;4969035;28;20585;-68
2021/12/10 00:33:37;;;;;;;13.13;6.15;;;;;;;-8.38;100.00;101499.53;4943118;28;20074;-57
2021/12/10 00:36:22;;;;;;;13.90;6.35;;;;;;;-8.40;100.00;101495.91;4974734;28;20041;-59
2021/12/10 00:39:11;;;;;;;15.88;6.10;;;;;;;-8.32;100.00;101511.22;4982802;28;20101;-74
2021/12/10 00:42:00;;;;;;;13.90;6.45;;;;;;;-8.33;100.00;101503.34;4970787;28;20045;-63
2021/12/10 00:44:45;;;;;;;14.30;6.45;;;;;;;-8.36;100.00;101503.09;4989162;28;20727;-62
2021/12/10 00:47:30;;;;;;;18.65;7.03;;;;;;;-8.33;100.00;101503.34;4988601;28;20061;-65
2021/12/10 00:50:19;;;;;;;15.32;6.53;;;;;;;-8.51;100.00;101507.91;4986696;28;20052;-55
2021/12/10 00:53:05;;;;;;;15.27;6.40;;;;;;;-8.61;100.00;101501.88;4973078;28;20085;-64
2021/12/10 00:55:51;;;;;;;14.32;6.20;;;;;;;-8.59;100.00;101501.22;4960982;28;20116;-59
2021/12/10 00:58:38;;;;;;;15.40;6.22;;;;;;;-8.54;100.00;101509.34;4970840;28;20041;-66
2021/12/10 01:01:26;;;;;;;10.85;5.68;;;;;;;-8.54;100.00;101514.47;4960651;28;20057;-57
2021/12/10 01:04:17;;;;;;;14.70;6.60;;;;;;;-8.61;100.00;101518.22;4961489;28;20065;-58
2021/12/10 01:07:06;;;;;;;15.88;6.30;;;;;;;-8.63;100.00;101501.75;4968181;28;20045;-59
2021/12/10 01:09:53;;;;;;;15.95;6.22;;;;;;;-8.66;100.00;101522.09;4961967;28;20101;-60
2021/12/10 01:12:43;;;;;;;14.85;6.50;;;;;;;-8.65;100.00;101520.41;4989185;28;20076;-60
2021/12/10 01:27:47;;;;;;;15.63;6.57;;;;;;;-8.65;100.00;101529.03;4986419;28;20247;-75
2021/12/10 01:30:36;;;;;;;15.27;6.75;;;;;;;-8.65;100.00;101539.31;4987128;28;20067;-61
2021/12/10 01:33:20;;;;;;;13.48;6.07;;;;;;;-8.68;100.00;101546.75;4983401;28;20177;-65
2021/12/10 01:36:09;;;;;;;;;;;;;;;-8.57;100.00;101542.50;4984420;28;20747;-63
2021/12/10 01:38:55;;;;;;;13.00;6.38;;;;;;;-8.56;100.00;101541.72;4954890;28;19932;-61
2021/12/10 01:41:43;;;;;;;15.48;6.43;;;;;;;-8.56;100.00;101534.91;4955616;28;20093;-63
2021/12/10 01:44:32;;;;;;;14.70;6.20;;;;;;;-8.64;100.00;101540.19;4966810;28;20058;-62
2021/12/10 01:47:23;;;;;;;13.82;6.05;;;;;;;-8.69;100.00;101538.91;4942882;28;20046;-57
2021/12/10 01:50:09;;;;;;;13.13;6.13;;;;;;;-8.81;100.00;101540.47;4975030;28;20053;-65
2021/12/10 01:52:57;;;;;;;15.48;6.13;;;;;;;-8.86;100.00;101531.47;4968538;28;20546;-71
2021/12/10 01:55:46;;;;;;;14.38;6.03;;;;;;;-8.95;100.00;101530.72;4964873;28;20092;-63
2021/12/10 01:58:32;;;;;;;14.43;6.25;;;;;;;-8.84;100.00;101537.63;4983115;28;20072;-64
2021/12/10 02:01:28;;;;;;;12.52;6.05;;;;;;;-8.85;100.00;101543.53;4973535;28;20061;-69
2021/12/10 02:04:20;;;;;;;13.48;5.97;;;;;;;-8.97;100.00;101547.66;4958830;28;20509;-62
2021/12/10 02:07:08;;;;;;;16.10;6.38;;;;;;;-8.81;100.00;101556.78;4965530;28;20100;-62
2021/12/10 02:09:54;;;;;;;17.52;6.55;;;;;;;-8.85;100.00;101549.59;4956118;28;20093;-63
2021/12/10 02:12:39;;;;;;;16.25;7.03;;;;;;;-8.88;100.00;101556.13;4959076;28;20797;-62
2021/12/10 02:15:28;;;;;;;18.35;6.70;;;;;;;-8.95;100.00;101538.41;4971678;28;20124;-70
2021/12/10 02:18:13;;;;;;;15.65;6.63;;;;;;;-8.97;100.00;101548.56;4969664;28;20049;-69
2021/12/10 02:21:02;;;;;;;16.25;6.30;;;;;;;-8.93;100.00;101555.75;4952817;28;20854;-63
2021/12/10 02:23:57;;;;;;;14.30;6.07;;;;;;;-8.92;100.00;101554.06;4971308;28;20093;-71
2021/12/10 02:26:46;;;;;;;;;;;;;;;-8.93;100.00;101550.63;4956610;28;20045;-63
2021/12/10 02:29:34;;;;;;;17.30;6.53;;;;;;;-8.97;100.00;101550.22;4977190;28;20025;-61
2021/12/10 02:32:19;;;;;;;11.52;5.80;;;;;;;-9.02;100.00;101543.81;4973450;28;20053;-68
2021/12/10 02:35:10;;;;;;;13.75;5.95;;;;;;;-9.06;100.00;101542.63;4972037;28;20085;-64
2021/12/10 02:38:03;;;;;;;17.67;5.97;;;;;;;-8.97;100.00;101546.00;4959755;28;20038;-67
2021/12/10 02:40:50;;;;;;;14.93;5.90;;;;;;;-8.90;100.00;101535.47;4943584;28;20057;-66
2021/12/10 02:43:37;;;;;;;16.67;6.50;;;;;;;-9.07;100.00;101539.94;4986874;28;20069;-57
2021/12/10 02:46:22;;;;;;;15.95;6.28;;;;;;;-9.12;100.00;101533.50;4967102;28;20398;-72
2021/12/10 02:49:08;;;;;;;;;;;;;;;-9.09;100.00;101541.47;4969549;28;20090;-58
2021/12/10 02:51:53;;;;;;;18.50;6.22;;;;;;;-9.32;100.00;101549.78;4968227;28;20340;-61
2021/12/10 02:54:38;;;;;;;15.25;6.25;;;;;;;-9.41;100.00;101538.75;4970221;28;20112;-62
2021/12/10 02:57:22;;;;;;;19.50;7.00;;;;;;;-9.28;100.00;101544.16;4985411;28;20057;-66
2021/12/10 03:00:10;;;;;;;;;;;;;;;-9.23;100.00;101547.13;4981429;28;20542;-62
2021/12/10 03:02:56;;;;;;;18.67;7.25;;;;;;;-9.28;100.00;101532.97;4985031;28;19916;-58
2021/12/10 03:05:41;;;;;;;16.08;6.82;;;;;;;-9.28;100.00;101523.63;4981710;28;20149;-70
2021/12/10 03:08:26;;;;;;;16.98;7.38;;;;;;;-9.18;100.00;101538.13;4985558;28;20109;-57
2021/12/10 03:11:13;;;;;;;18.52;7.32;;;;;;;-9.15;100.00;101535.84;4978928;28;20038;-56
2021/12/10 03:14:05;;;;;;;18.55;7.07;;;;;;;-9.13;100.00;101548.03;4971243;28;20069;-59
2021/12/10 03:16:53;;;;;;;17.77;7.47;;;;;;;-9.09;100.00;101555.22;4969516;28;20044;-62
2021/12/10 03:19:38;;;;;;;20.17;7.60;;;;;;;-9.07;100.00;101565.63;4980549;28;20120;-61
2021/12/10 03:22:25;;;;;;;18.80;7.50;;;;;;;-9.03;100.00;101563.44;4985035;28;20052;-67
2021/12/10 03:25:13;;;;;;;20.52;8.38;;;;;;;-9.04;100.00;101564.22;4980767;28;20057;-64
2021/12/10 03:27:59;;;;;;;19.73;7.45;;;;;;;-9.10;100.00;101570.50;4938951;28;20050;-64
2021/12/10 03:30:49;;;;;;;16.00;7.18;;;;;;;-9.22;100.00;101565.22;4980148;28;21026;-63
2021/12/10 03:33:35;;;;;;;19.52;7.78;;;;;;;-9.29;100.00;101562.91;4981357;28;20070;-56
2021/12/10 03:36:21;;;;;;;19.42;7.70;;;;;;;-9.31;100.00;101573.81;4957117;28;20537;-59
2021/12/10 03:39:06;;;;;;;17.00;7.22;;;;;;;-9.51;100.00;101573.78;4979821;28;20049;-64
2021/12/10 03:41:53;;;;;;;16.35;6.97;;;;;;;-9.62;100.00;101585.63;4967557;28;20045;-63
2021/12/10 03:44:39;;;;;;;17.20;7.72;;;;;;;-9.51;100.00;101584.03;4954762;28;20564;-65
2021/12/10 03:47:24;;;;;;;17.88;7.30;;;;;;;-9.47;100.00;101591.25;4982428;28;20097;-66
2021/12/10 03:50:19;;;;;;;16.55;6.95;;;;;;;-9.46;100.00;101583.63;4980258;28;20558;-62
2021/12/10 03:53:05;;;;;;;15.27;6.90;;;;;;;-9.72;100.00;101590.75;4987138;28;20046;-57
2021/12/10 03:55:51;;;;;;;18.65;7.28;;;;;;;-9.81;100.00;101582.25;4970904;28;20541;-58
2021/12/10 03:58:35;;;;;;;21.02;7.53;;;;;;;-9.82;100.00;101587.25;4970342;28;20048;-63
2021/12/10 04:01:22;;;;;;;;;;;;;;;-9.72;100.00;101588.19;4951188;28;20552;-69
2021/12/10 04:04:14;;;;;;;20.20;7.32;;;;;;;-9.68;100.00;101599.59;4954793;28;19969;-63
2021/12/10 04:07:02;;;;;;;17.30;6.93;;;;;;;-9.57;100.00;101606.59;4971766;28;20128;-62
2021/12/10 04:09:50;;;;;;;18.23;7.03;;;;;;;-9.51;100.00;101595.19;4960646;28;20429;-71
2021/12/10 04:12:35;;;;;;;18.83;8.05;;;;;;;-9.57;100.00;101601.44;4956797;28;20479;-56
2021/12/10 04:15:22;;;;;;;;;;;;;;;-9.51;100.00;101592.63;4968620;28;20045;-62
2021/12/10 04:18:09;;;;;;;21.30;7.72;;;;;;;-9.60;100.00;101606.31;4972120;28;20017;-62
2021/12/10 04:20:53;;;;;;;17.55;7.68;;;;;;;-9.61;100.00;101592.59;4983453;28;20105;-64
2021/12/10 04:23:41;;;;;;;18.55;8.32;;;;;;;-9.70;100.00;101594.34;4984100;28;20104;-64
2021/12/10 04:26:28;;;;;;;24.17;8.75;;;;;;;-9.69;100.00;101601.28;4943447;28;20097;-56
2021/12/10 04:29:13;;;;;;;19.08;8.57;;;;;;;-9.66;100.00;101603.22;4964745;28;20080;-64
2021/12/10 04:31:58;;;;;;;;;;;;;;;-9.55;100.00;101603.38;4954901;28;20049;-64
2021/12/10 04:34:42;;;;;;;22.33;7.97;;;;;;;-9.82;100.00;101603.50;4960088;28;19959;-63
2021/12/10 04:37:27;;;;;;;17.70;7.20;;;;;;;-9.86;100.00;101615.97;4989449;28;20582;-59
2021/12/10 04:40:12;;;;;;;;;;;;;;;-10.07;100.00;101606.38;4969888;28;20342;-61
2021/12/10 04:42:59;;;;;;;23.90;8.32;;;;;;;-10.17;100.00;101609.78;4966627;28;19917;-68
2021/12/10 04:45:44;;;;;;;23.80;9.05;;;;;;;-10.09;100.00;101598.56;4967132;28;20117;-67
2021/12/10 04:48:29;;;;;;;;;;;;;;;-9.93;100.00;101603.34;4966504;28;20052;-65
2021/12/10 04:51:16;;;;;;;23.88;8.18;;;;;;;-10.11;100.00;101604.28;4963897;28;19921;-65
2021/12/10 04:54:04;;;;;;;18.63;7.72;;;;;;;-10.19;100.00;101606.19;4987043;28;20918;-64
2021/12/10 04:56:51;;;;;;;22.67;7.88;;;;;;;-10.36;100.00;101598.63;4988610;28;20359;-65
2021/12/10 04:59:38;;;;;;;22.80;7.97;;;;;;;-10.25;100.00;101608.22;4973124;28;20174;-63
2021/12/10 05:02:22;;;;;;;20.85;8.32;;;;;;;-10.15;100.00;101620.16;4951621;28;20089;-64
2021/12/10 05:05:08;;;;;;;24.25;8.68;;;;;;;-10.19;100.00;101621.56;4978428;28;20061;-65
2021/12/10 05:07:54;;;;;;;25.38;8.90;;;;;;;-10.42;100.00;101619.50;4986829;28;20045;-63
2021/12/10 05:10:39;;;;;;;18.75;8.18;;;;;;;-10.37;100.00;101625.00;4986467;28;20053;-64
2021/12/10 05:13:26;;;;;;;21.20;8.45;;;;;;;-10.34;100.00;101624.41;4973001;28;20136;-61
2021/12/10 05:16:12;;;;;;;26.05;8.65;;;;;;;-10.30;100.00;101634.19;4985749;28;20116;-71
2021/12/10 05:19:00;;;;;;;22.40;8.63;;;;;;;-10.58;100.00;101631.66;4987596;28;20041;-60
2021/12/10 05:21:46;;;;;;;19.98;8.95;;;;;;;-10.42;100.00;101629.75;4957535;28;20053;-65
2021/12/10 05:24:31;;;;;;;21.65;9.10;;;;;;;-10.28;100.00;101632.66;4986666;28;20064;-67
2021/12/10 05:27:16;;;;;;;26.65;9.73;;;;;;;-10.17;100.00;101634.53;4975224;28;20455;-59
2021/12/10 05:30:01;;;;;;;;;;;;;;;-10.26;100.00;101628.56;4970174;28;20132;-66
2021/12/10 05:32:48;;;;;;;24.58;10.15;;;;;;;-10.35;100.00;101631.19;4973307;28;20318;-72
2021/12/10 05:35:33;;;;;;;25.30;9.10;;;;;;;-10.47;100.00;101630.06;4986802;28;20046;-62
2021/12/10 05:38:22;;;;;;;27.13;9.93;;;;;;;-10.68;100.00;101628.13;4967896;28;20511;-59
2021/12/10 05:41:10;;;;;;;25.15;9.27;;;;;;;-10.65;100.00;101634.41;4972179;28;20045;-71
2021/12/10 05:43:54;;;;;;;23.30;8.73;;;;;;;-10.44;100.00;101638.94;4969284;28;20137;-76
2021/12/10 05:46:39;;;;;;;25.35;8.65;;;;;;;-10.30;100.00;101636.75;4938368;28;20094;-62
2021/12/10 05:49:26;;;;;;;23.63;8.60;;;;;;;-10.32;100.00;101641.72;4958015;28;20054;-65
2021/12/10 05:52:11;;;;;;;21.23;8.85;;;;;;;-10.28;100.00;101645.47;4970805;28;20734;-66
2021/12/10 05:54:57;;;;;;;26.38;9.27;;;;;;;-10.20;100.00;101652.19;4938530;28;20049;-65
2021/12/10 05:57:43;;;;;;;21.88;8.45;;;;;;;-10.25;100.00;101638.06;4954590;28;20053;-57
2021/12/10 06:00:32;;;;;;;17.77;7.55;;;;;;;-9.99;100.00;101665.25;4969931;28;20454;-60
2021/12/10 06:03:17;;;;;;;21.42;8.80;;;;;;;-9.92;100.00;101670.19;4965207;28;20427;-75
2021/12/10 06:06:04;;;;;;;22.10;8.15;;;;;;;-9.91;100.00;101655.66;4976448;28;20550;-59
2021/12/10 06:08:51;;;;;;;20.17;7.95;;;;;;;-9.95;100.00;101663.84;4962094;28;20474;-63
2021/12/10 06:11:36;;;;;;;21.80;8.25;;;;;;;-9.85;100.00;101663.94;4966062;28;20045;-64
2021/12/10 06:14:21;;;;;;;23.48;9.35;;;;;;;-9.81;100.00;101668.56;4968081;28;20037;-59
2021/12/10 06:17:08;;;;;;;24.58;8.88;;;;;;;-9.78;100.00;101668.84;4970416;28;20454;-68
2021/12/10 06:19:53;;;;;;;24.20;8.38;;;;;;;-9.72;100.00;101666.81;4984574;28;20087;-70
2021/12/10 06:22:38;;;;;;;21.05;7.93;;;;;;;-9.70;100.00;101670.44;4969835;28;20128;-61
2021/12/10 06:25:23;;;;;;;20.17;8.25;;;;;;;-9.84;100.00;101679.47;4986747;28;20386;-56
2021/12/10 06:28:07;;;;;;;;;;;;;;;-9.67;100.00;101684.44;4972202;28;20384;-63
2021/12/10 06:30:53;;;;;;;19.75;7.55;;;;;;;-9.79;100.00;101685.91;4959572;28;19964;-65
2021/12/10 06:33:37;;;;;;;25.02;9.10;;;;;;;-9.73;100.00;101693.25;4984883;28;20201;-61
2021/12/10 06:36:23;;;;;;;22.13;8.95;;;;;;;-9.65;100.00;101693.19;4985413;28;20505;-69
2021/12/10 06:39:09;;;;;;;21.25;8.35;;;;;;;-9.64;100.00;101691.50;4985851;28;20053;-63
2021/12/10 06:41:54;;;;;;;22.60;7.95;;;;;;;-9.51;100.00;101699.53;4954239;28;20080;-63
2021/12/10 06:44:38;;;;;;;25.25;8.32;;;;;;;-9.46;100.00;101695.72;4952337;28;20078;-61
2021/12/10 06:47:23;;;;;;;21.35;8.18;;;;;;;-9.54;100.00;101702.72;4959599;28;20049;-59
2021/12/10 06:50:08;;;;;;;18.70;7.47;;;;;;;-9.66;100.00;101700.75;4968939;28;20193;-63
2021/12/10 06:52:54;;;;;;;22.08;8.07;;;;;;;-9.57;100.00;101701.56;4958567;28;20113;-63
2021/12/10 06:55:40;;;;;;;20.83;7.90;;;;;;;-9.63;100.00;101704.47;4985772;28;20137;-72
2021/12/10 06:58:27;;;;;;;55.72;21.90;;;;;;;-9.62;100.00;101713.97;4986662;28;20398;-65
2021/12/10 07:01:25;;;;;;;22.85;8.65;;;;;;;-9.48;100.00;101704.94;4953179;28;20395;-59
2021/12/10 07:04:13;;;;;;;17.58;7.75;;;;;;;-9.43;100.00;101709.72;4951486;28;20042;-74
2021/12/10 07:06:58;;;;;;;22.13;7.68;;;;;;;-9.37;100.00;101712.84;4983397;28;20034;-61
2021/12/10 07:09:43;;;;;;;20.80;7.43;;;;;;;-9.35;100.00;101711.28;4983200;28;20121;-66
2021/12/10 07:12:27;;;;;;;19.60;8.25;;;;;;;-9.29;100.00;101703.22;4972396;28;20125;-61
2021/12/10 07:15:15;;;;;;;23.65;9.13;;;;;;;-9.23;100.00;101714.94;4967312;28;20097;-66
2021/12/10 07:18:01;;;;;;;20.98;7.75;;;;;;;-9.22;100.00;101714.16;4986948;28;20434;-58
2021/12/10 07:20:47;;;;;;;23.00;8.25;;;;;;;-9.15;100.00;101718.19;4980705;28;20711;-60
2021/12/10 07:23:32;;;;;;;22.10;8.20;;;;;;;-9.09;100.00;101709.34;4983648;28;20053;-57
2021/12/10 07:26:18;;;;;;;20.90;8.40;;;;;;;-8.96;100.00;101711.31;4972071;28;20045;-58
2021/12/10 07:29:05;;;;;;;20.67;8.20;;;;;;;-8.97;100.00;101713.00;4985433;28;20064;-58
2021/12/10 07:31:50;;;;;;;21.52;8.13;;;;;;;-8.94;100.00;101715.84;4961290;28;20515;-64
2021/12/10 07:34:36;;;;;;;20.00;7.95;;;;;;;-8.86;100.00;101713.91;4966352;28;20240;-59
2021/12/10 07:37:21;;;;;;;18.23;7.85;;;;;;;-8.74;100.00;101707.25;4983824;28;20054;-66
2021/12/10 07:40:10;;;;;;;19.08;7.88;;;;;;;-8.59;100.00;101718.88;4967667;28;20061;-62
2021/12/10 07:42:56;;;;;;;20.10;8.13;;;;;;;-7.64;100.00;101717.53;4979194;28;20049;-62
2021/12/10 07:45:45;;;;;;;19.55;7.28;;;;;;;-5.78;100.00;101715.25;4968842;28;20468;-63
2021/12/10 07:48:34;;;;;;;18.95;7.25;;;;;;;-4.15;93.12;101712.53;4957158;28;20363;-63
2021/12/10 07:51:24;;;;;;;17.98;7.80;;;;;;;-2.67;83.48;101718.13;4955001;28;20049;-67
2021/12/10 07:54:09;;;;;;;17.33;7.50;;;;;;;-1.84;76.45;101716.41;4970738;28;20885;-64
2021/12/10 07:56:54;;;;;;;13.48;6.80;;;;;;;-0.79;66.73;101717.44;4959233;28;20811;-61
2021/12/10 07:59:40;;;;;;;17.27;8.32;;;;;;;0.13;58.39;101722.47;4969903;28;20820;-66
2021/12/10 08:02:25;;;;;;;16.17;7.35;;;;;;;0.86;51.31;101717.59;4982771;28;20044;-63
2021/12/10 08:05:12;;;;;;;14.30;7.78;;;;;;;1.74;46.20;101721.88;4984306;28;20165;-71
2021/12/10 08:07:57;;;;;;;17.70;8.25;;;;;;;2.48;42.44;101720.88;4962374;28;20076;-63
2021/12/10 08:10:48;;;;;;;15.80;7.90;;;;;;;3.05;38.77;101725.06;4952856;28;20129;-63
2021/12/10 08:13:33;;;;;;;14.82;7.78;;;;;;;3.58;35.83;101723.75;4967428;28;20129;-63
2021/12/10 08:16:19;;;;;;;16.80;9.10;;;;;;;4.02;34.09;101722.81;4976588;28;20557;-65
2021/12/10 08:19:04;;;;;;;17.42;8.98;;;;;;;4.52;32.50;101717.66;4966813;28;20045;-66
2021/12/10 08:21:49;;;;;;;17.00;8.82;;;;;;;4.78;30.21;101699.31;4984285;28;20457;-68
2021/12/10 08:24:33;;;;;;;18.05;9.20;;;;;;;4.91;30.08;101709.41;4951530;28;20450;-65
2021/12/10 08:27:19;;;;;;;16.73;8.63;;;;;;;5.45;29.19;101706.78;4968265;28;20069;-62
2021/12/10 08:30:06;;;;;;;15.68;9.07;;;;;;;5.72;28.03;101702.34;4979812;28;20041;-62
2021/12/10 08:32:54;;;;;;;15.93;8.43;;;;;;;5.64;27.49;101699.50;4970652;28;20077;-60
2021/12/10 08:35:43;;;;;;;16.35;8.90;;;;;;;5.99;27.29;101713.72;4982249;28;20093;-62
2021/12/10 08:38:29;;;;;;;17.45;9.65;;;;;;;5.84;27.39;101706.28;4954590;28;20101;-61
2021/12/10 08:41:19;;;;;;;17.35;9.93;;;;;;;6.62;26.46;101707.63;4974848;28;20443;-59
2021/12/10 08:44:06;;;;;;;17.52;9.20;;;;;;;6.66;26.04;101704.22;4971874;28;20092;-61
2021/12/10 08:46:52;;;;;;;16.08;9.40;;;;;;;7.05;25.51;101711.44;4986718;28;20053;-64
2021/12/10 08:49:37;;;;;;;13.38;8.18;;;;;;;7.30;24.98;101719.06;4986561;28;20081;-57
2021/12/10 08:52:22;;;;;;;17.00;8.65;;;;;;;7.56;24.80;101723.19;4955169;28;20130;-64
2021/12/10 08:55:08;;;;;;;18.25;9.48;;;;;;;8.01;24.06;101715.41;4973672;28;20068;-59
2021/12/10 08:57:54;;;;;;;16.27;9.48;;;;;;;8.34;23.45;101706.47;4971165;28;20270;-68
2021/12/10 09:00:42;;;;;;;16.63;9.15;;;;;;;8.46;23.51;101712.00;4976794;28;20084;-68
2021/12/10 09:03:27;;;;;;;14.88;9.50;;;;;;;7.90;24.60;101714.28;4970441;28;20070;-63
2021/12/10 09:06:13;;;;;;;14.65;9.10;;;;;;;8.61;23.45;101714.03;4967679;28;20046;-66
2021/12/10 09:08:59;;;;;;;16.30;9.02;;;;;;;8.82;22.93;101710.03;4972848;28;20205;-65
2021/12/10 09:11:48;;;;;;;15.75;9.48;;;;;;;9.03;22.81;101713.03;4983683;28;20049;-59
2021/12/10 09:14:41;;;;;;;16.55;9.40;;;;;;;9.26;22.47;101710.81;4985202;28;20048;-65
2021/12/10 09:17:31;;;;;;;14.55;8.35;;;;;;;9.57;22.38;101702.44;4959621;28;20112;-64
2021/12/10 09:20:30;;;;;;;12.13;8.05;;;;;;;10.15;22.09;101701.50;4970025;28;20041;-63
2021/12/10 09:23:19;;;;;;;12.48;8.25;;;;;;;10.35;21.57;101700.88;4976929;28;20112;-68
2021/12/10 09:26:12;;;;;;;11.82;7.32;;;;;;;10.15;22.16;101705.06;4954676;28;20082;-60
2021/12/10 09:28:58;;;;;;;11.88;7.20;;;;;;;10.36;22.04;101699.13;4955405;28;20088;-63
2021/12/10 09:31:44;;;;;;;11.80;7.32;;;;;;;10.41;21.15;101698.31;4941529;28;20553;-62
2021/12/10 09:34:29;;;;;;;10.95;6.47;;;;;;;10.40;21.54;101699.16;4981920;28;20498;-64
2021/12/10 09:37:15;;;;;;;11.00;6.65;;;;;;;10.60;21.83;101694.09;4981615;28;20129;-69
2021/12/10 09:40:02;;;;;;;10.55;6.50;;;;;;;10.44;21.55;101690.38;4946468;28;20283;-60
2021/12/10 09:42:48;;;;;;;9.63;6.18;;;;;;;10.89;21.12;101698.81;4965609;28;20781;-61
2021/12/10 09:45:36;;;;;;;11.70;6.93;;;;;;;11.03;20.92;101693.63;4969988;28;20045;-64
2021/12/10 09:48:26;;;;;;;10.50;6.40;;;;;;;11.02;20.61;101691.84;4975574;28;20046;-64
2021/12/10 09:51:22;;;;;;;11.85;7.97;;;;;;;11.17;21.33;101695.53;4949516;28;20115;-58
2021/12/10 09:54:13;;;;;;;10.38;6.80;;;;;;;11.02;21.35;101703.34;4976297;28;20046;-59
2021/12/10 09:57:05;;;;;;;9.02;6.43;;;;;;;11.17;21.22;101690.22;4954773;28;20529;-63
2021/12/10 09:59:53;;;;;;;10.40;6.40;;;;;;;11.09;20.81;101701.63;4977858;28;20045;-64
2021/12/10 10:02:39;;;;;;;9.32;6.50;;;;;;;10.96;21.77;101697.97;4983162;28;20049;-60
2021/12/10 10:05:27;;;;;;;9.63;6.15;;;;;;;10.99;21.43;101695.34;4975415;28;20041;-64
2021/12/10 10:08:21;;;;;;;9.55;6.15;;;;;;;11.17;20.98;101698.19;4971125;28;20049;-71
2021/12/10 10:11:12;;;;;;;9.10;5.82;;;;;;;11.27;20.83;101691.19;4973709;28;20134;-65
2021/12/10 10:13:58;;;;;;;9.07;5.88;;;;;;;11.38;21.19;101700.09;4964585;28;20045;-66
2021/12/10 10:16:44;;;;;;;10.75;6.60;;;;;;;11.28;21.17;101706.22;4986779;28;20609;-76
2021/12/10 10:19:29;;;;;;;10.25;6.15;;;;;;;11.34;20.99;101695.63;4940922;28;20046;-65
2021/12/10 10:22:19;;;;;;;9.60;6.10;;;;;;;11.62;20.61;101698.53;4977709;28;20060;-69
2021/12/10 10:25:08;;;;;;;12.40;6.32;;;;;;;11.61;20.79;101706.50;4980563;28;20073;-65
2021/12/10 10:27:53;;;;;;;9.07;5.70;;;;;;;11.10;20.62;101691.03;4944836;28;20042;-65
2021/12/10 10:30:51;;;;;;;8.77;5.95;;;;;;;11.59;21.00;101697.63;4983533;28;20057;-72
2021/12/10 10:33:39;;;;;;;9.48;6.07;;;;;;;11.41;21.24;101711.66;4954067;28;20050;-64
2021/12/10 10:36:28;;;;;;;9.02;6.10;;;;;;;11.20;20.91;101705.28;4971154;28;20635;-62
2021/12/10 10:39:21;;;;;;;8.98;6.32;;;;;;;11.61;20.63;101702.09;4970398;28;20049;-73
2021/12/10 10:42:11;;;;;;;9.88;6.47;;;;;;;11.78;20.61;101703.06;4969626;28;20050;-65
2021/12/10 10:45:01;;;;;;;10.45;6.28;;;;;;;11.86;21.32;101716.41;4953931;28;20042;-65
2021/12/10 10:47:48;;;;;;;10.20;6.50;;;;;;;12.13;20.53;101716.53;4953676;28;20085;-73
2021/12/10 10:50:58;;;;;;;9.85;6.38;;;;;;;12.30;20.36;101714.88;4985710;28;20145;-70
2021/12/10 10:53:49;;;;;;;9.95;6.15;;;;;;;11.98;20.04;101716.47;4939827;28;20462;-60
2021/12/10 10:56:46;;;;;;;9.80;6.57;;;;;;;11.89;20.81;101716.41;4967556;28;20539;-61
2021/12/10 10:59:31;;;;;;;9.63;6.10;;;;;;;11.91;20.67;101712.88;4958671;28;20045;-71
2021/12/10 11:02:16;;;;;;;9.98;6.68;;;;;;;11.83;20.33;101716.41;4972360;28;20513;-60
2021/12/10 11:05:10;;;;;;;10.27;6.40;;;;;;;11.87;20.64;101705.78;4983868;28;20131;-59
2021/12/10 11:08:01;;;;;;;9.93;6.25;;;;;;;11.71;20.92;101713.69;4982048;28;20126;-62
2021/12/10 11:10:51;;;;;;;8.05;5.80;;;;;;;11.52;20.45;101706.41;4968260;28;20463;-63
2021/12/10 11:13:36;;;;;;;9.50;5.47;;;;;;;11.30;21.41;101709.78;4962540;28;20189;-56
2021/12/10 11:16:22;;;;;;;9.13;6.10;;;;;;;10.91;21.59;101715.63;4972616;28;20394;-58
2021/12/10 11:19:29;;;;;;;8.38;5.90;;;;;;;11.17;21.51;101716.78;4982136;28;20068;-62
2021/12/10 11:22:16;;;;;;;8.93;5.68;;;;;;;10.72;21.79;101711.00;4982099;28;20053;-62
2021/12/10 11:25:11;;;;;;;8.48;6.13;;;;;;;10.16;21.77;101708.59;4975457;28;20052;-60
2021/12/10 11:28:13;;;;;;;10.25;6.43;;;;;;;10.07;22.69;101704.06;4956736;28;20403;-59
2021/12/10 11:31:10;;;;;;;10.07;6.38;;;;;;;10.21;22.95;101715.72;4967391;28;20053;-63
2021/12/10 11:33:55;;;;;;;10.90;6.47;;;;;;;9.73;22.33;101714.16;4969251;28;20097;-65
2021/12/10 11:36:50;;;;;;;10.18;6.53;;;;;;;8.84;23.66;101718.00;4954244;28;20045;-64
2021/12/10 11:39:44;;;;;;;9.20;6.15;;;;;;;7.07;25.58;101691.22;4957040;28;20216;-67
2021/12/10 11:42:48;;;;;;;8.32;5.63;;;;;;;5.88;28.23;101710.78;4976945;28;20091;-63
2021/12/10 11:45:51;;;;;;;9.13;6.35;;;;;;;4.57;30.62;101705.56;4953854;28;20046;-68
2021/12/10 11:48:40;;;;;;;11.30;6.82;;;;;;;3.34;34.44;101709.69;4960904;28;20399;-63
2021/12/10 11:51:36;;;;;;;9.88;5.70;;;;;;;2.77;37.98;101719.53;4968347;28;20065;-61
2021/12/10 11:54:23;;;;;;;11.82;6.57;;;;;;;1.97;41.31;101712.47;4967541;28;20153;-57
2021/12/10 11:57:16;;;;;;;10.45;6.47;;;;;;;1.93;43.88;101706.19;4960928;28;20152;-57
2021/12/10 12:00:18;;;;;;;10.80;6.30;;;;;;;1.66;45.48;101704.94;4989480;28;20041;-61
2021/12/10 12:03:07;;;;;;;12.95;6.75;;;;;;;1.27;47.39;101699.56;4984232;28;20553;-64
2021/12/10 12:05:52;;;;;;;10.07;5.90;;;;;;;0.69;49.04;101695.84;4966420;28;20390;-63
2021/12/10 12:08:38;;;;;;;10.07;5.60;;;;;;;0.08;52.15;101703.06;4965842;28;20049;-64
2021/12/10 12:11:23;;;;;;;12.40;6.40;;;;;;;-0.47;55.78;101694.03;4981928;28;20508;-65
2021/12/10 12:14:25;;;;;;;9.18;5.82;;;;;;;-0.32;58.78;101703.56;4969104;28;20470;-62
2021/12/10 12:17:32;;;;;;;13.60;6.15;;;;;;;-0.51;60.61;101705.97;4972078;28;20588;-64
2021/12/10 12:20:43;;;;;;;11.80;5.30;;;;;;;-0.60;61.88;101707.19;4973504;28;20041;-64
2021/12/10 12:26:38;;;;;;;11.50;5.47;;;;;;;-1.59;65.76;101701.44;4986055;28;20132;-69
2021/12/10 12:29:22;;;;;;;13.70;6.35;;;;;;;-1.93;67.45;101716.75;4986164;28;20045;-74
2021/12/10 12:32:19;;;;;;;11.00;5.50;;;;;;;-2.08;69.51;101699.34;4988924;28;20731;-64
2021/12/10 12:35:22;;;;;;;10.48;5.07;;;;;;;-2.19;71.22;101695.19;4973727;28;20185;-65
2021/12/10 12:38:21;;;;;;;13.32;6.00;;;;;;;-2.52;72.95;101704.41;4965068;28;20050;-65
2021/12/10 12:41:22;;;;;;;12.32;5.47;;;;;;;-2.68;74.12;101712.06;4986347;28;20132;-74
2021/12/10 12:44:23;;;;;;;12.38;6.00;;;;;;;-2.85;75.93;101715.25;4985563;28;20042;-66
2021/12/10 12:47:22;;;;;;;12.52;5.45;;;;;;;-3.43;78.03;101704.53;4971870;28;20453;-66
2021/12/10 12:50:19;;;;;;;11.02;5.03;;;;;;;-3.61;79.60;101713.66;4985523;28;20088;-64
2021/12/10 12:53:15;;;;;;;10.95;5.07;;;;;;;-3.69;81.58;101713.97;4981684;28;20548;-68
2021/12/10 12:56:11;;;;;;;11.43;5.55;;;;;;;-3.92;82.83;101717.56;4987539;28;20081;-62
2021/12/10 12:58:55;;;;;;;12.40;5.68;;;;;;;-3.93;83.60;101714.88;4987339;28;20343;-66
2021/12/10 13:01:49;;;;;;;10.43;5.65;;;;;;;-4.09;84.70;101715.53;4971629;28;20061;-61
2021/12/10 13:04:41;;;;;;;13.32;5.68;;;;;;;-4.14;86.28;101714.31;4983824;28;20045;-62
2021/12/10 13:07:28;;;;;;;14.13;6.20;;;;;;;-4.16;86.95;101725.38;4969484;28;20057;-64
2021/12/10 13:10:19;;;;;;;13.40;5.60;;;;;;;-4.20;86.92;101725.97;4966086;28;20525;-63
2021/12/10 13:13:12;;;;;;;10.38;4.88;;;;;;;-4.36;86.42;101739.50;4968095;28;20092;-59